Time;durP1;ratioP1;P1;durP2;ratioP2;P2;SDS_P1;SDS_P2;PMS_P1;PMS_P2;Temp;Humidity;BMP_temperature;BMP_pressure;BME280_temperature;BME280_humidity;BME280_pressure;Samples;Min_cycle;Max_cycle;Signal;HPM_P1;HPM_P2
2021/05/25 00:00:09;;;;;;;6.82;3.88;;;10.90;99.10;;;;;;5057407;28;20017;-87
2021/05/25 00:02:34;;;;;;;5.93;3.60;;;10.90;99.00;;;;;;5057269;28;20459;-87
2021/05/25 00:05:00;;;;;;;7.43;3.28;;;10.90;99.10;;;;;;5047798;22;20118;-86
2021/05/25 00:07:25;;;;;;;6.95;4.00;;;10.80;99.00;;;;;;5043798;28;20072;-87
2021/05/25 00:09:51;;;;;;;6.72;4.40;;;10.90;99.10;;;;;;5053032;28;20378;-87
2021/05/25 00:12:17;;;;;;;7.68;4.35;;;10.90;99.20;;;;;;5040078;28;20034;-87
2021/05/25 00:14:42;;;;;;;7.95;4.75;;;10.80;99.10;;;;;;5059936;28;20119;-87
2021/05/25 00:17:08;;;;;;;6.25;4.40;;;10.80;99.10;;;;;;5041981;28;20021;-87
2021/05/25 00:19:34;;;;;;;7.97;3.90;;;10.80;99.10;;;;;;5050173;28;20021;-87
2021/05/25 00:22:00;;;;;;;8.05;4.78;;;10.80;98.90;;;;;;5043782;28;20021;-87
2021/05/25 00:24:25;;;;;;;8.73;4.85;;;10.80;98.90;;;;;;5047798;28;20017;-87
2021/05/25 00:26:51;;;;;;;8.20;4.32;;;10.80;99.00;;;;;;5041993;28;20029;-87
2021/05/25 00:29:50;;;;;;;7.22;3.75;;;10.70;98.90;;;;;;5012996;28;20056;-87
2021/05/25 00:32:16;;;;;;;8.05;4.70;;;10.80;99.00;;;;;;5049219;28;20363;-87
2021/05/25 00:34:42;;;;;;;6.32;4.38;;;10.70;98.80;;;;;;5049951;28;20056;-85
2021/05/25 00:37:07;;;;;;;6.82;4.65;;;10.70;98.90;;;;;;5055733;28;20751;-87
2021/05/25 00:39:33;;;;;;;7.22;4.40;;;10.70;98.90;;;;;;5055844;28;20033;-87
2021/05/25 00:41:59;;;;;;;8.52;4.70;;;10.70;98.80;;;;;;5052017;28;20100;-87
2021/05/25 00:44:24;;;;;;;8.88;5.28;;;10.70;98.70;;;;;;5032799;28;20021;-87
2021/05/25 00:46:52;;;;;;;6.95;4.75;;;10.70;98.80;;;;;;5059733;28;20379;-87
2021/05/25 00:49:17;;;;;;;8.27;5.13;;;10.60;98.70;;;;;;5047508;28;20025;-88
2021/05/25 00:51:43;;;;;;;8.25;5.60;;;10.60;98.80;;;;;;5044366;28;20114;-87
2021/05/25 00:54:09;;;;;;;6.97;5.15;;;10.60;98.70;;;;;;5057251;28;20039;-87
2021/05/25 00:56:34;;;;;;;7.38;4.72;;;10.60;98.70;;;;;;5055386;28;20028;-87
2021/05/25 00:59:01;;;;;;;8.27;5.22;;;10.60;98.70;;;;;;5042043;28;20037;-87
2021/05/25 01:01:27;;;;;;;6.38;4.20;;;10.60;98.80;;;;;;5051981;28;20542;-87
2021/05/25 01:03:53;;;;;;;7.07;4.60;;;10.60;98.70;;;;;;5051850;28;20033;-87
2021/05/25 01:06:19;;;;;;;6.88;4.18;;;10.60;98.60;;;;;;5052213;28;20092;-87
2021/05/25 01:08:45;;;;;;;8.23;4.22;;;10.60;98.70;;;;;;5052032;28;20479;-87
2021/05/25 01:11:13;;;;;;;7.10;4.10;;;10.60;98.90;;;;;;5055066;28;20111;-87
2021/05/25 01:13:51;;;;;;;6.97;3.88;;;10.50;98.60;;;;;;5055570;28;20043;-87
2021/05/25 01:16:18;;;;;;;7.15;4.38;;;10.50;98.60;;;;;;5067180;28;20116;-86
2021/05/25 01:18:44;;;;;;;5.85;3.50;;;10.50;98.40;;;;;;5044434;28;20017;-87
2021/05/25 01:21:12;;;;;;;4.78;3.00;;;10.50;98.40;;;;;;5052803;28;20029;-86
2021/05/25 01:23:39;;;;;;;6.03;3.60;;;10.50;98.40;;;;;;5068144;28;20021;-86
2021/05/25 01:26:05;;;;;;;7.45;3.30;;;10.40;98.30;;;;;;5047473;28;20121;-86
2021/05/25 01:28:32;;;;;;;4.55;2.58;;;10.40;98.30;;;;;;5034974;28;20040;-87
2021/05/25 01:30:58;;;;;;;5.55;3.20;;;10.40;98.20;;;;;;5034838;28;20501;-87
2021/05/25 01:33:30;;;;;;;6.70;2.72;;;10.30;98.20;;;;;;5034769;28;20017;-87
2021/05/25 01:35:57;;;;;;;4.97;3.03;;;10.30;98.10;;;;;;5052524;28;20032;-86
2021/05/25 01:38:24;;;;;;;7.43;2.80;;;10.30;98.00;;;;;;5051542;28;20053;-86
2021/05/25 01:40:52;;;;;;;4.72;2.85;;;10.20;97.80;;;;;;5016696;28;20026;-87
2021/05/25 01:43:18;;;;;;;5.03;2.60;;;10.20;97.80;;;;;;5007294;28;20479;-86
2021/05/25 01:45:44;;;;;;;5.75;2.95;;;10.10;97.80;;;;;;5051706;28;20086;-87
2021/05/25 01:48:10;;;;;;;4.65;2.35;;;10.10;97.80;;;;;;5037404;28;20024;-87
2021/05/25 01:50:38;;;;;;;4.75;2.42;;;10.10;98.00;;;;;;5051340;28;20033;-87
2021/05/25 01:53:13;;;;;;;6.35;2.47;;;10.10;98.10;;;;;;5051249;28;20103;-87
2021/05/25 01:55:42;;;;;;;4.63;2.53;;;10.10;98.10;;;;;;5059482;28;20037;-87
2021/05/25 01:58:14;;;;;;;3.67;2.10;;;10.00;98.00;;;;;;5067886;28;20482;-87
2021/05/25 02:00:43;;;;;;;5.05;2.15;;;10.10;98.00;;;;;;5052443;28;20029;-87
2021/05/25 02:03:09;;;;;;;5.85;2.25;;;10.10;98.00;;;;;;5051722;28;20047;-87
2021/05/25 02:05:35;;;;;;;3.75;1.90;;;10.00;97.70;;;;;;5031239;28;20402;-87
2021/05/25 02:08:04;;;;;;;5.07;1.92;;;10.00;97.70;;;;;;5030069;28;20056;-87
2021/05/25 02:10:36;;;;;;;3.85;1.77;;;10.00;97.70;;;;;;5044125;28;20031;-87
2021/05/25 02:13:06;;;;;;;5.05;1.80;;;9.90;97.70;;;;;;5045084;28;20044;-86
2021/05/25 02:15:32;;;;;;;4.53;2.00;;;9.90;97.50;;;;;;5048027;28;20474;-87
2021/05/25 02:18:10;;;;;;;3.65;1.88;;;9.80;97.50;;;;;;5027373;28;20025;-87
2021/05/25 02:20:36;;;;;;;5.70;2.88;;;9.80;97.50;;;;;;5020940;28;20013;-87
2021/05/25 02:23:03;;;;;;;4.53;2.22;;;9.80;97.60;;;;;;5031042;28;20060;-87
2021/05/25 02:25:29;;;;;;;4.35;2.08;;;9.80;97.60;;;;;;5049501;28;20013;-87
2021/05/25 02:27:55;;;;;;;5.63;2.30;;;9.70;97.50;;;;;;5051186;28;20109;-87
2021/05/25 02:30:21;;;;;;;3.70;2.00;;;9.70;97.50;;;;;;5051225;28;20060;-87
2021/05/25 02:32:47;;;;;;;3.75;1.70;;;9.70;97.60;;;;;;5027099;28;20025;-87
2021/05/25 02:35:13;;;;;;;5.70;2.15;;;9.70;97.50;;;;;;5037266;28;20033;-88
2021/05/25 02:37:39;;;;;;;4.90;1.92;;;9.70;97.30;;;;;;5032854;28;20029;-87
2021/05/25 02:40:05;;;;;;;3.85;1.80;;;9.60;97.30;;;;;;5046617;28;20029;-87
2021/05/25 02:42:31;;;;;;;4.32;1.90;;;9.60;97.40;;;;;;5054525;28;20445;-87
2021/05/25 02:44:57;;;;;;;4.43;2.08;;;9.60;97.40;;;;;;5045134;28;20029;-87
2021/05/25 02:47:23;;;;;;;4.70;2.20;;;9.60;97.50;;;;;;5048703;28;20367;-87
2021/05/25 02:49:49;;;;;;;3.72;1.70;;;9.60;97.50;;;;;;5021591;28;20386;-87
2021/05/25 02:52:15;;;;;;;5.45;2.20;;;9.50;97.50;;;;;;5038043;28;20025;-87
2021/05/25 02:54:41;;;;;;;5.00;2.30;;;9.50;97.40;;;;;;5038062;28;20422;-87
2021/05/25 02:57:07;;;;;;;4.53;2.00;;;9.50;97.40;;;;;;5026723;28;20345;-87
2021/05/25 02:59:33;;;;;;;5.45;2.10;;;9.50;97.30;;;;;;5048720;28;20379;-87
2021/05/25 03:01:59;;;;;;;3.67;1.80;;;9.40;97.40;;;;;;5028074;28;20013;-87
2021/05/25 03:04:25;;;;;;;5.45;2.00;;;9.40;97.40;;;;;;5054239;28;20380;-86
2021/05/25 03:06:50;;;;;;;6.10;2.35;;;9.40;97.40;;;;;;5046407;28;20030;-87
2021/05/25 03:09:16;;;;;;;6.15;1.80;;;9.30;97.50;;;;;;5031798;28;20459;-86
2021/05/25 03:11:43;;;;;;;4.15;2.03;;;9.40;97.50;;;;;;5054199;28;20080;-86
2021/05/25 03:14:08;;;;;;;5.18;2.10;;;9.30;97.50;;;;;;5062895;28;20033;-87
2021/05/25 03:16:34;;;;;;;8.38;2.22;;;9.30;97.50;;;;;;5033758;28;20095;-86
2021/05/25 03:19:00;;;;;;;4.78;2.00;;;9.30;97.60;;;;;;5017758;28;20025;-86
2021/05/25 03:21:25;;;;;;;5.82;2.22;;;9.40;97.50;;;;;;5049818;28;20056;-86
2021/05/25 03:23:52;;;;;;;6.15;2.10;;;9.30;97.40;;;;;;5020862;28;20029;-87
2021/05/25 03:26:18;;;;;;;4.75;2.10;;;9.30;97.40;;;;;;5054091;28;20344;-86
2021/05/25 03:28:44;;;;;;;4.60;2.05;;;9.30;97.30;;;;;;5050695;28;20022;-87
2021/05/25 03:31:09;;;;;;;5.22;2.30;;;9.30;97.40;;;;;;5029601;28;20537;-87
2021/05/25 03:33:35;;;;;;;4.35;2.00;;;9.20;97.40;;;;;;5020406;28;20047;-87
2021/05/25 03:36:01;;;;;;;4.53;2.00;;;9.20;97.50;;;;;;5053763;28;20037;-87
2021/05/25 03:38:26;;;;;;;6.38;2.35;;;9.20;97.50;;;;;;5053721;28;20021;-87
2021/05/25 03:40:52;;;;;;;5.35;2.30;;;9.20;97.50;;;;;;5052762;28;20025;-86
2021/05/25 03:43:18;;;;;;;7.05;2.95;;;9.20;97.50;;;;;;5053649;28;20037;-87
2021/05/25 03:45:44;;;;;;;4.82;2.45;;;9.20;97.50;;;;;;5020425;28;20112;-87
2021/05/25 03:48:09;;;;;;;5.38;2.08;;;9.20;97.60;;;;;;5020400;28;20033;-87
2021/05/25 03:50:35;;;;;;;7.03;2.78;;;9.20;97.60;;;;;;5037052;28;20382;-86
2021/05/25 03:53:01;;;;;;;5.40;2.30;;;9.20;97.70;;;;;;5054637;28;20036;-86
2021/05/25 04:00:44;;;;;;;4.55;2.10;;;9.20;98.00;;;;;;5039830;28;20092;-87
2021/05/25 04:03:10;;;;;;;5.90;2.60;;;9.20;97.80;;;;;;5052923;28;20471;-87
2021/05/25 04:05:35;;;;;;;6.40;2.75;;;9.20;97.90;;;;;;5036351;28;20103;-87
2021/05/25 04:08:02;;;;;;;5.85;2.50;;;9.20;97.90;;;;;;5052907;28;20043;-87
2021/05/25 04:10:27;;;;;;;6.18;2.90;;;9.20;97.80;;;;;;5052915;28;20017;-87
2021/05/25 04:12:53;;;;;;;7.15;2.85;;;9.20;98.00;;;;;;5019666;28;20359;-87
2021/05/25 04:15:19;;;;;;;6.68;2.75;;;9.10;98.00;;;;;;5052914;28;20056;-86
2021/05/25 04:17:45;;;;;;;6.05;3.13;;;9.20;98.10;;;;;;5036484;28;20466;-86
2021/05/25 04:20:12;;;;;;;5.95;2.55;;;9.20;98.20;;;;;;5020476;28;20045;-87
2021/05/25 04:22:38;;;;;;;4.95;2.60;;;9.10;98.10;;;;;;5054261;28;20507;-86
2021/05/25 04:25:06;;;;;;;5.85;3.00;;;9.10;98.10;;;;;;5069295;28;20028;-86
2021/05/25 04:27:32;;;;;;;5.72;2.85;;;9.10;98.20;;;;;;5054990;28;20035;-87
2021/05/25 04:29:58;;;;;;;6.60;3.28;;;9.10;98.30;;;;;;5052852;28;20025;-87
2021/05/25 04:32:24;;;;;;;4.15;2.88;;;9.10;98.20;;;;;;5052622;28;20501;-86
2021/05/25 04:34:49;;;;;;;6.75;3.53;;;9.10;98.20;;;;;;5040151;28;20128;-87
2021/05/25 04:37:15;;;;;;;7.13;3.67;;;9.10;98.20;;;;;;5033632;28;20167;-87
2021/05/25 04:39:41;;;;;;;6.95;3.58;;;9.10;98.20;;;;;;5036314;28;20029;-88
2021/05/25 04:42:07;;;;;;;5.80;3.47;;;9.10;98.20;;;;;;5021370;28;20075;-86
2021/05/25 04:44:32;;;;;;;5.57;3.17;;;9.10;98.20;;;;;;5049102;28;20043;-87
2021/05/25 04:46:58;;;;;;;8.48;4.10;;;9.10;98.20;;;;;;5034665;28;20489;-87
2021/05/25 04:49:24;;;;;;;8.48;3.90;;;9.10;98.20;;;;;;5047253;28;20025;-87
2021/05/25 04:51:49;;;;;;;6.53;3.92;;;9.10;98.30;;;;;;5066434;28;20075;-86
2021/05/25 04:54:15;;;;;;;6.82;3.92;;;9.20;98.30;;;;;;5064242;28;20108;-88
2021/05/25 04:56:40;;;;;;;7.70;4.35;;;9.20;98.30;;;;;;5050125;28;20033;-87
2021/05/25 04:59:06;;;;;;;7.25;4.13;;;9.20;98.50;;;;;;5063040;28;20084;-86
2021/05/25 05:01:33;;;;;;;5.22;3.42;;;9.20;98.30;;;;;;5055534;28;20100;-86
2021/05/25 05:03:58;;;;;;;7.50;3.92;;;9.30;98.40;;;;;;5047517;28;20020;-87
2021/05/25 05:06:24;;;;;;;6.70;4.10;;;9.30;98.50;;;;;;5044910;28;20391;-86
2021/05/25 05:08:50;;;;;;;7.68;4.20;;;9.30;98.30;;;;;;5051426;28;20380;-86
2021/05/25 05:11:16;;;;;;;7.07;4.90;;;9.30;98.40;;;;;;5044579;28;20035;-87
2021/05/25 05:13:41;;;;;;;7.05;3.78;;;9.40;98.40;;;;;;5049345;28;20479;-86
2021/05/25 05:16:07;;;;;;;8.20;3.95;;;9.40;98.40;;;;;;5065267;28;20039;-86
2021/05/25 05:18:33;;;;;;;6.90;3.63;;;9.40;98.40;;;;;;5034479;28;20017;-86
2021/05/25 05:21:03;;;;;;;6.95;4.20;;;9.50;98.50;;;;;;5073912;28;20377;-87
2021/05/25 05:23:29;;;;;;;6.50;3.90;;;9.40;98.40;;;;;;5064881;28;20017;-86
2021/05/25 05:25:54;;;;;;;6.10;3.63;;;9.50;98.30;;;;;;5049022;28;20032;-86
2021/05/25 05:28:20;;;;;;;6.68;3.65;;;9.50;98.30;;;;;;5087459;28;20040;-86
2021/05/25 05:30:46;;;;;;;6.47;4.03;;;9.50;98.30;;;;;;5050045;28;20065;-86
2021/05/25 05:33:12;;;;;;;7.28;4.03;;;9.60;98.40;;;;;;5052403;28;20045;-86
2021/05/25 05:35:37;;;;;;;4.93;3.13;;;9.60;98.40;;;;;;5051306;28;20028;-86
2021/05/25 05:38:03;;;;;;;6.40;3.60;;;9.60;98.30;;;;;;5031351;28;20022;-86
2021/05/25 05:40:29;;;;;;;7.55;3.95;;;9.60;98.20;;;;;;5013356;28;20017;-86
2021/05/25 05:42:56;;;;;;;6.68;3.63;;;9.60;98.30;;;;;;5040454;28;20033;-87
2021/05/25 05:45:22;;;;;;;7.00;3.70;;;9.70;98.30;;;;;;5041498;28;20367;-86
2021/05/25 05:47:48;;;;;;;5.50;3.97;;;9.70;98.30;;;;;;5051350;28;20467;-87
2021/05/25 05:50:14;;;;;;;8.63;4.95;;;9.70;98.20;;;;;;5040348;28;20085;-87
2021/05/25 05:52:40;;;;;;;8.57;4.63;;;9.70;98.00;;;;;;5022257;28;20053;-87
2021/05/25 05:55:07;;;;;;;7.32;4.97;;;9.70;98.00;;;;;;5043049;28;20111;-87
2021/05/25 05:57:33;;;;;;;8.13;5.55;;;9.70;98.00;;;;;;5046725;28;20036;-87
2021/05/25 05:59:59;;;;;;;9.80;5.47;;;9.70;97.90;;;;;;5055564;28;20013;-86
2021/05/25 06:02:25;;;;;;;8.30;6.05;;;9.70;98.00;;;;;;5038146;28;20103;-87
2021/05/25 06:04:51;;;;;;;9.18;6.10;;;9.70;98.00;;;;;;5056205;22;20053;-86
2021/05/25 06:07:17;;;;;;;9.68;6.50;;;9.70;98.00;;;;;;5066965;28;20040;-86
2021/05/25 06:09:44;;;;;;;8.07;5.63;;;9.80;98.00;;;;;;5051404;28;20035;-85
2021/05/25 06:12:09;;;;;;;9.18;6.88;;;9.80;98.10;;;;;;5035373;28;20033;-86
2021/05/25 06:14:35;;;;;;;9.25;6.85;;;9.80;97.90;;;;;;5071365;28;20469;-85
2021/05/25 06:17:02;;;;;;;8.07;6.28;;;9.80;97.90;;;;;;5037961;28;20020;-86
2021/05/25 06:19:28;;;;;;;8.57;6.32;;;9.80;98.00;;;;;;5071808;28;20017;-86
2021/05/25 06:21:53;;;;;;;8.88;6.65;;;9.80;98.00;;;;;;5044274;28;20116;-86
2021/05/25 06:24:19;;;;;;;7.95;6.35;;;9.90;98.00;;;;;;5071851;28;20075;-85
2021/05/25 06:26:45;;;;;;;8.98;7.22;;;9.90;97.70;;;;;;5071395;28;20025;-86
2021/05/25 06:29:11;;;;;;;7.75;6.95;;;9.90;97.70;;;;;;5054779;28;20397;-85
2021/05/25 06:31:37;;;;;;;7.57;6.50;;;9.90;97.60;;;;;;5057944;28;20416;-86
2021/05/25 06:34:03;;;;;;;8.45;6.68;;;9.90;97.70;;;;;;5050666;28;20029;-85
2021/05/25 06:36:29;;;;;;;8.90;6.88;;;9.90;97.70;;;;;;5034759;28;20032;-85
2021/05/25 06:38:54;;;;;;;8.30;7.22;;;9.90;97.70;;;;;;5036589;28;20474;-85
2021/05/25 06:41:20;;;;;;;8.82;6.90;;;10.00;97.70;;;;;;5060289;28;20381;-86
2021/05/25 06:43:46;;;;;;;8.63;7.18;;;10.00;98.00;;;;;;5059853;28;20020;-85
2021/05/25 06:46:11;;;;;;;9.98;7.28;;;10.00;97.60;;;;;;5055356;28;20028;-85
2021/05/25 06:48:37;;;;;;;8.95;7.22;;;10.00;97.60;;;;;;5054518;28;20052;-85
2021/05/25 06:51:07;;;;;;;11.18;7.60;;;10.10;97.40;;;;;;5066938;28;20063;-85
2021/05/25 06:53:33;;;;;;;9.52;7.25;;;10.10;97.20;;;;;;5071085;28;20481;-85
2021/05/25 06:55:59;;;;;;;9.05;7.32;;;10.10;97.10;;;;;;5042261;28;20028;-85
2021/05/25 06:58:25;;;;;;;11.63;8.75;;;10.10;97.20;;;;;;5061781;28;20090;-85
2021/05/25 07:00:51;;;;;;;12.90;8.07;;;10.10;96.80;;;;;;5070956;28;20025;-85
2021/05/25 07:03:17;;;;;;;11.68;7.68;;;10.10;96.90;;;;;;5055901;28;20017;-85
2021/05/25 07:05:42;;;;;;;9.02;7.25;;;10.20;97.00;;;;;;5052433;28;20091;-85
2021/05/25 07:08:08;;;;;;;11.02;7.90;;;10.20;97.00;;;;;;5068537;28;20035;-85
2021/05/25 07:10:34;;;;;;;9.82;8.13;;;10.20;97.00;;;;;;5069728;28;20068;-85
2021/05/25 07:12:59;;;;;;;13.50;7.43;;;10.20;97.00;;;;;;5050250;28;20429;-85
2021/05/25 07:15:25;;;;;;;9.88;8.20;;;10.30;97.00;;;;;;5068033;28;20029;-85
2021/05/25 07:17:57;;;;;;;10.75;8.73;;;10.30;97.10;;;;;;5072600;28;20038;-85
2021/05/25 07:20:26;;;;;;;11.90;8.80;;;10.40;97.10;;;;;;5080497;28;20028;-85
2021/05/25 07:22:54;;;;;;;9.95;8.13;;;10.40;97.00;;;;;;5074936;28;20048;-84
2021/05/25 07:25:22;;;;;;;10.80;9.15;;;10.40;97.00;;;;;;5058182;28;20036;-85
2021/05/25 07:27:47;;;;;;;9.88;8.80;;;10.50;97.00;;;;;;5076132;28;20546;-85
2021/05/25 07:30:14;;;;;;;10.00;8.43;;;10.50;97.00;;;;;;5071815;28;20112;-85
2021/05/25 07:36:05;;;;;;;10.18;8.00;;;10.50;97.00;;;;;;5065053;28;20507;-86
2021/05/25 07:45:16;;;;;;;9.38;8.07;;;10.70;97.10;;;;;;5078851;28;20031;-83
2021/05/25 07:47:43;;;;;;;10.18;7.05;;;10.80;97.00;;;;;;5077675;28;20019;-84
2021/05/25 07:50:15;;;;;;;8.88;7.57;;;10.80;97.10;;;;;;5083327;28;20082;-83
2021/05/25 07:52:43;;;;;;;12.73;8.30;;;10.90;97.20;;;;;;5072465;28;20119;-84
2021/05/25 07:55:09;;;;;;;9.60;7.90;;;10.90;97.20;;;;;;5076816;28;20028;-84
2021/05/25 07:57:35;;;;;;;9.10;7.43;;;11.00;97.20;;;;;;5051868;28;20028;-84
2021/05/25 08:00:01;;;;;;;7.82;7.03;;;11.10;97.20;;;;;;5080502;28;20027;-84
2021/05/25 08:02:27;;;;;;;11.38;7.28;;;11.10;97.20;;;;;;5073543;28;20025;-84
2021/05/25 08:04:52;;;;;;;8.65;7.38;;;11.20;96.70;;;;;;5043612;28;20040;-84
2021/05/25 08:07:18;;;;;;;9.38;6.65;;;11.20;96.70;;;;;;5060696;28;20025;-83
2021/05/25 08:09:46;;;;;;;7.43;6.63;;;11.30;96.90;;;;;;5084117;28;20033;-83
2021/05/25 08:12:12;;;;;;;7.78;6.88;;;11.40;96.90;;;;;;5065079;28;20059;-82
2021/05/25 08:14:38;;;;;;;8.77;6.95;;;11.40;96.80;;;;;;5093617;28;20028;-84
2021/05/25 08:17:18;;;;;;;7.32;5.75;;;11.40;96.90;;;;;;5079624;28;20032;-83
2021/05/25 08:19:47;;;;;;;9.95;6.90;;;11.50;97.00;;;;;;5031126;28;20115;-83
2021/05/25 08:22:13;;;;;;;9.25;6.10;;;11.50;97.10;;;;;;5055206;28;20127;-83
2021/05/25 08:24:38;;;;;;;7.80;6.05;;;11.50;97.00;;;;;;5049319;28;20098;-83
2021/05/25 08:27:04;;;;;;;7.45;6.03;;;11.50;97.50;;;;;;5075156;28;20178;-84
2021/05/25 08:29:30;;;;;;;8.70;6.05;;;11.60;97.50;;;;;;5077551;28;20028;-83
2021/05/25 08:31:55;;;;;;;8.13;5.82;;;11.70;97.80;;;;;;5073777;28;20466;-83
2021/05/25 08:34:23;;;;;;;8.07;5.13;;;11.80;98.10;;;;;;5067859;28;20024;-84
2021/05/25 08:36:49;;;;;;;6.75;4.75;;;11.90;98.10;;;;;;5062840;28;20020;-85
2021/05/25 08:39:14;;;;;;;7.78;4.80;;;12.10;98.10;;;;;;5058834;28;20091;-83
2021/05/25 08:41:40;;;;;;;8.93;3.92;;;12.20;98.00;;;;;;5068904;28;20048;-84
2021/05/25 08:44:06;;;;;;;5.75;3.13;;;12.30;96.20;;;;;;5053519;28;20049;-84
2021/05/25 08:46:33;;;;;;;7.30;2.78;;;12.30;96.10;;;;;;5042858;28;20028;-86
2021/05/25 08:48:59;;;;;;;4.80;2.10;;;12.30;96.50;;;;;;5073621;28;20024;-86
2021/05/25 08:51:25;;;;;;;3.38;1.90;;;12.40;96.70;;;;;;5040352;28;20079;-86
2021/05/25 08:53:51;;;;;;;6.28;2.50;;;12.40;96.60;;;;;;5056903;28;20465;-86
2021/05/25 08:56:17;;;;;;;8.35;2.58;;;12.50;96.20;;;;;;5036660;28;20064;-85
2021/05/25 08:58:43;;;;;;;4.72;2.53;;;12.60;95.80;;;;;;5039970;28;20763;-85
2021/05/25 09:01:09;;;;;;;7.25;2.58;;;12.70;94.80;;;;;;5040244;28;20025;-86
2021/05/25 09:03:58;;;;;;;6.63;2.50;;;12.70;94.20;;;;;;5073212;28;20100;-88
2021/05/25 09:06:55;;;;;;;6.40;2.90;;;12.70;94.50;;;;;;5072334;28;20040;-86
2021/05/25 09:09:21;;;;;;;2.38;1.10;;;12.80;95.00;;;;;;5024445;28;20131;-85
2021/05/25 09:12:09;;;;;;;3.35;0.93;;;12.90;91.60;;;;;;5025341;28;20087;-86
2021/05/25 09:14:48;;;;;;;3.05;0.82;;;12.80;91.00;;;;;;5067399;28;20024;-86
2021/05/25 09:17:21;;;;;;;1.95;0.80;;;12.60;92.20;;;;;;5051963;28;20029;-86
2021/05/25 09:19:49;;;;;;;2.55;0.63;;;12.40;92.30;;;;;;5055587;28;20381;-84
2021/05/25 09:22:38;;;;;;;2.80;1.08;;;12.20;93.00;;;;;;5066441;28;20017;-86
2021/05/25 09:25:14;;;;;;;3.90;1.40;;;11.90;93.60;;;;;;5067167;28;20028;-87
2021/05/25 09:27:45;;;;;;;1.92;1.00;;;11.60;94.50;;;;;;5047265;28;20017;-87
2021/05/25 09:30:15;;;;;;;3.35;1.40;;;11.50;95.40;;;;;;5054400;28;20424;-85
2021/05/25 09:32:52;;;;;;;4.00;1.38;;;11.40;96.00;;;;;;5067721;28;20020;-85
2021/05/25 09:35:21;;;;;;;4.53;1.30;;;11.30;96.70;;;;;;5063074;28;20112;-84
2021/05/25 09:37:50;;;;;;;6.97;1.70;;;11.30;97.10;;;;;;5071261;28;20458;-85
2021/05/25 09:40:17;;;;;;;2.00;1.00;;;11.20;97.30;;;;;;5054420;28;20507;-85
2021/05/25 09:42:45;;;;;;;2.80;1.05;;;11.20;97.50;;;;;;5070898;28;20035;-84
2021/05/25 09:45:14;;;;;;;5.15;1.20;;;11.20;97.70;;;;;;5066533;28;20025;-84
2021/05/25 09:47:55;;;;;;;2.65;1.10;;;11.20;97.70;;;;;;5054205;28;20024;-85
2021/05/25 09:50:25;;;;;;;4.10;1.27;;;11.20;97.90;;;;;;5058436;28;20020;-85
2021/05/25 09:53:11;;;;;;;3.97;1.17;;;11.20;98.20;;;;;;5071582;28;20032;-85
2021/05/25 09:55:56;;;;;;;3.85;1.27;;;11.30;98.30;;;;;;5062051;28;20079;-84
2021/05/25 09:58:38;;;;;;;2.25;1.00;;;11.30;98.40;;;;;;5052105;28;20016;-86
2021/05/25 10:01:06;;;;;;;3.92;1.67;;;11.40;98.70;;;;;;5064680;28;20029;-86
2021/05/25 10:03:35;;;;;;;4.80;2.05;;;11.40;98.80;;;;;;5066268;28;20432;-84
2021/05/25 10:06:02;;;;;;;5.93;2.30;;;11.50;99.00;;;;;;5076172;28;20067;-85
2021/05/25 10:08:28;;;;;;;4.03;1.90;;;11.60;99.30;;;;;;5061831;28;20028;-86
2021/05/25 10:10:56;;;;;;;4.72;2.28;;;11.60;99.30;;;;;;5032296;28;20036;-86
2021/05/25 10:13:25;;;;;;;4.82;2.67;;;11.70;99.40;;;;;;5057389;28;20493;-85
2021/05/25 10:15:51;;;;;;;12.52;3.63;;;11.80;99.80;;;;;;5063914;28;20447;-85
2021/05/25 10:21:24;;;;;;;8.38;4.00;;;11.90;99.90;;;;;;5020559;28;20108;-87
2021/05/25 10:23:50;;;;;;;8.57;3.85;;;12.00;99.80;;;;;;5052028;28;20041;-86
2021/05/25 10:26:19;;;;;;;11.90;4.13;;;12.10;99.40;;;;;;5044335;28;20110;-86
2021/05/25 10:28:52;;;;;;;7.75;3.67;;;12.10;99.40;;;;;;5087018;28;20028;-85
2021/05/25 10:31:30;;;;;;;13.93;3.85;;;12.10;99.30;;;;;;5023140;28;20037;-86
2021/05/25 10:34:15;;;;;;;6.88;3.80;;;12.20;99.40;;;;;;5053262;28;20017;-84
2021/05/25 10:36:46;;;;;;;8.52;3.80;;;12.20;99.50;;;;;;5051127;28;20021;-84
2021/05/25 10:39:37;;;;;;;9.02;3.22;;;12.20;99.50;;;;;;5077863;28;20020;-84
2021/05/25 10:42:18;;;;;;;4.38;2.40;;;12.20;98.90;;;;;;5062748;28;20477;-85
2021/05/25 10:44:44;;;;;;;7.18;2.42;;;12.10;98.80;;;;;;5069988;28;20556;-86
2021/05/25 10:47:50;;;;;;;6.00;2.60;;;12.00;99.00;;;;;;5063506;28;20025;-86
2021/05/25 10:50:31;;;;;;;7.72;3.03;;;11.90;99.00;;;;;;5036501;28;20039;-87
2021/05/25 10:52:59;;;;;;;8.95;3.33;;;11.80;99.10;;;;;;5068940;28;20064;-85
2021/05/25 10:55:50;;;;;;;8.20;3.30;;;11.80;99.20;;;;;;5059080;28;20069;-86
2021/05/25 10:58:35;;;;;;;9.48;3.90;;;11.80;99.60;;;;;;5080888;28;20048;-86
2021/05/25 11:01:08;;;;;;;6.95;4.15;;;11.80;99.90;;;;;;5069453;28;20054;-87
2021/05/25 11:03:33;;;;;;;9.27;3.92;;;11.80;99.90;;;;;;5047280;28;20021;-87
2021/05/25 11:06:00;;;;;;;10.18;4.82;;;11.90;99.90;;;;;;5066710;28;20052;-86
2021/05/25 11:08:38;;;;;;;7.68;3.78;;;11.90;99.90;;;;;;5094318;28;20021;-86
2021/05/25 11:11:11;;;;;;;10.85;4.20;;;12.10;99.90;;;;;;5074138;28;20052;-87
2021/05/25 11:13:42;;;;;;;6.93;3.42;;;12.20;99.90;;;;;;5093140;28;20125;-87
2021/05/25 11:16:25;;;;;;;;;;;12.40;99.90;;;;;;5061405;28;20091;-85
2021/05/25 11:19:19;;;;;;;7.07;2.97;;;12.50;99.90;;;;;;5071829;28;19908;-85
2021/05/25 11:24:46;;;;;;;6.25;2.53;;;12.80;99.90;;;;;;5071835;28;20027;-84
2021/05/25 11:27:46;;;;;;;5.35;2.60;;;12.90;99.90;;;;;;5074001;28;20500;-85
2021/05/25 11:30:28;;;;;;;5.90;2.42;;;13.10;99.90;;;;;;5074040;28;20017;-84
2021/05/25 11:32:56;;;;;;;7.45;2.22;;;13.20;99.90;;;;;;5069745;28;20025;-85
2021/05/25 11:35:27;;;;;;;6.22;2.03;;;13.30;99.90;;;;;;5067683;28;20511;-85
2021/05/25 11:37:57;;;;;;;3.92;1.70;;;13.30;99.10;;;;;;5067221;28;20355;-85
2021/05/25 11:40:24;;;;;;;4.40;1.77;;;13.40;98.20;;;;;;5073927;28;20024;-90
2021/05/25 11:42:51;;;;;;;7.00;2.05;;;13.50;98.40;;;;;;5069788;28;20028;-89
2021/05/25 11:45:20;;;;;;;7.40;2.10;;;13.60;98.30;;;;;;5041818;28;20028;-89
2021/05/25 11:47:52;;;;;;;6.00;2.13;;;13.70;98.00;;;;;;5072324;28;20125;-89
2021/05/25 11:50:18;;;;;;;4.88;1.70;;;13.70;96.20;;;;;;5052193;28;20511;-89
2021/05/25 11:52:47;;;;;;;6.25;2.28;;;13.70;95.30;;;;;;5052908;28;20040;-89
2021/05/25 11:55:14;;;;;;;4.35;1.50;;;13.60;96.20;;;;;;5053887;28;20029;-89
2021/05/25 11:57:45;;;;;;;6.95;1.48;;;13.60;95.70;;;;;;5049258;28;20031;-89
2021/05/25 12:00:31;;;;;;;6.78;1.60;;;13.50;95.80;;;;;;5058457;28;20047;-89
2021/05/25 12:02:59;;;;;;;4.03;1.65;;;13.50;94.80;;;;;;5063403;28;20036;-89
2021/05/25 12:05:29;;;;;;;4.18;1.63;;;13.30;95.20;;;;;;5070678;23;20068;-83
2021/05/25 12:08:00;;;;;;;7.40;1.77;;;13.30;95.10;;;;;;5065411;28;20051;-85
2021/05/25 12:10:34;;;;;;;12.05;2.55;;;13.30;95.50;;;;;;5053457;28;20021;-84
2021/05/25 12:13:08;;;;;;;4.85;1.92;;;13.30;95.70;;;;;;5072684;28;20021;-84
2021/05/25 12:15:51;;;;;;;4.30;1.73;;;13.30;95.20;;;;;;5070856;28;20025;-85
2021/05/25 12:18:19;;;;;;;5.22;1.63;;;13.30;95.50;;;;;;5038813;28;20027;-85
2021/05/25 12:20:49;;;;;;;4.53;1.50;;;13.30;95.60;;;;;;5073011;28;20017;-85
2021/05/25 12:23:18;;;;;;;4.00;1.35;;;13.30;96.10;;;;;;5073520;28;20021;-82
2021/05/25 12:25:50;;;;;;;8.80;1.83;;;13.40;96.40;;;;;;5071846;28;20102;-88
2021/05/25 12:28:19;;;;;;;3.53;1.20;;;13.40;95.60;;;;;;5055801;28;20059;-86
2021/05/25 12:30:49;;;;;;;4.78;1.30;;;13.50;94.50;;;;;;5074858;28;20089;-83
2021/05/25 12:33:19;;;;;;;3.25;1.20;;;13.40;94.40;;;;;;5071080;28;20063;-84
2021/05/25 12:35:46;;;;;;;3.45;1.10;;;13.50;94.20;;;;;;5069735;28;20041;-84
2021/05/25 12:38:15;;;;;;;4.15;0.77;;;13.50;92.20;;;;;;5054863;28;20087;-85
2021/05/25 12:40:43;;;;;;;2.90;0.90;;;13.40;91.40;;;;;;5070943;28;20048;-84
2021/05/25 12:43:38;;;;;;;3.55;0.65;;;13.40;91.60;;;;;;5061569;28;20037;-84
2021/05/25 12:46:09;;;;;;;4.03;1.17;;;13.30;91.60;;;;;;5038545;28;20041;-85
2021/05/25 12:48:36;;;;;;;3.50;0.95;;;13.30;90.70;;;;;;5069777;28;20100;-84
2021/05/25 12:51:02;;;;;;;4.00;1.00;;;13.20;91.30;;;;;;5064060;28;20452;-84
2021/05/25 12:53:28;;;;;;;2.40;0.90;;;13.10;91.10;;;;;;5072239;28;20103;-84
2021/05/25 12:55:54;;;;;;;1.65;0.70;;;13.10;91.40;;;;;;5081720;28;20507;-85
2021/05/25 12:58:42;;;;;;;1.55;0.65;;;13.10;92.10;;;;;;5093673;28;20029;-84
2021/05/25 13:01:30;;;;;;;2.60;0.95;;;13.10;92.80;;;;;;5070983;28;20008;-88
2021/05/25 13:04:19;;;;;;;2.83;1.08;;;13.10;92.30;;;;;;5079139;28;20044;-87
2021/05/25 13:06:57;;;;;;;1.65;0.82;;;13.20;92.70;;;;;;5111292;28;20067;-86
2021/05/25 13:09:49;;;;;;;2.28;0.82;;;13.20;93.40;;;;;;5083995;28;20130;-84
2021/05/25 13:12:16;;;;;;;3.83;1.02;;;13.40;93.90;;;;;;5083481;28;20021;-85
2021/05/25 13:14:42;;;;;;;4.07;1.52;;;13.50;94.50;;;;;;5092215;28;20498;-84
2021/05/25 13:17:18;;;;;;;4.13;1.20;;;13.60;94.10;;;;;;5055449;28;20041;-83
2021/05/25 13:19:46;;;;;;;3.55;0.98;;;13.70;93.20;;;;;;5037264;28;20032;-83